Time;durP1;ratioP1;P1;durP2;ratioP2;P2;SDS_P1;SDS_P2;PMS_P1;PMS_P2;Temp;Humidity;BMP_temperature;BMP_pressure;BME280_temperature;BME280_humidity;BME280_pressure;Samples;Min_cycle;Max_cycle;Signal;HPM_P1;HPM_P2
2023/12/23 00:00:24;;;;;;;7.87;3.27;;;6.30;99.90;;;;;;5019172;28;20460;-69
2023/12/23 00:02:52;;;;;;;6.73;2.60;;;6.30;99.90;;;;;;5019392;28;20470;-68
2023/12/23 00:05:19;;;;;;;11.60;3.00;;;6.30;99.90;;;;;;5018723;28;20547;-67
2023/12/23 00:07:47;;;;;;;5.60;2.67;;;6.20;99.90;;;;;;5019009;28;20492;-65
2023/12/23 00:10:15;;;;;;;6.63;2.77;;;6.20;99.90;;;;;;5019162;28;20761;-70
2023/12/23 00:12:43;;;;;;;10.73;3.13;;;6.20;99.90;;;;;;5018906;28;20471;-70
2023/12/23 00:15:11;;;;;;;8.53;3.47;;;6.20;99.90;;;;;;5018665;28;20554;-70
2023/12/23 00:17:40;;;;;;;6.33;2.30;;;6.20;99.90;;;;;;5018898;28;20523;-70
2023/12/23 00:20:08;;;;;;;7.43;3.20;;;6.30;99.90;;;;;;5018572;28;20485;-68
2023/12/23 00:22:36;;;;;;;5.50;3.07;;;6.20;99.90;;;;;;5018172;28;20463;-70
2023/12/23 00:25:04;;;;;;;6.50;2.40;;;6.20;99.90;;;;;;5018609;28;20483;-71
2023/12/23 00:27:31;;;;;;;9.83;3.00;;;6.20;99.90;;;;;;5017416;28;20634;-70
2023/12/23 00:29:58;;;;;;;9.40;2.80;;;6.20;99.90;;;;;;5018773;28;20457;-70
2023/12/23 00:32:25;;;;;;;7.23;2.80;;;6.20;99.90;;;;;;5018493;28;20466;-70
2023/12/23 00:34:54;;;;;;;6.70;3.00;;;6.20;99.90;;;;;;5018808;28;20831;-70
2023/12/23 00:37:21;;;;;;;9.03;2.97;;;6.30;99.90;;;;;;5018427;28;20551;-68
2023/12/23 00:39:49;;;;;;;8.27;2.63;;;6.30;99.90;;;;;;5017888;28;20554;-71
2023/12/23 00:42:19;;;;;;;11.80;2.90;;;6.30;99.90;;;;;;5018259;28;20471;-68
2023/12/23 00:44:46;;;;;;;12.20;3.27;;;6.30;99.90;;;;;;5017595;28;20468;-70
2023/12/23 00:47:14;;;;;;;11.73;3.33;;;6.30;99.90;;;;;;5018007;28;20590;-70
2023/12/23 00:49:42;;;;;;;5.67;3.07;;;6.40;99.90;;;;;;5018102;28;20490;-69
2023/12/23 00:52:10;;;;;;;10.20;3.77;;;6.30;99.90;;;;;;5017495;28;20491;-71
2023/12/23 00:54:38;;;;;;;7.73;3.30;;;6.40;99.90;;;;;;5018104;28;20467;-70
2023/12/23 00:57:06;;;;;;;6.17;3.43;;;6.40;99.90;;;;;;5017580;28;20466;-71
2023/12/23 00:59:33;;;;;;;11.67;4.37;;;6.40;99.90;;;;;;5017876;28;20480;-71
2023/12/23 01:02:00;;;;;;;14.63;3.67;;;6.40;99.90;;;;;;5018372;28;20965;-71
2023/12/23 01:04:28;;;;;;;8.43;3.63;;;6.40;99.90;;;;;;5018683;28;20467;-71
2023/12/23 01:06:55;;;;;;;5.97;2.90;;;6.40;99.90;;;;;;5018566;28;20500;-71
2023/12/23 01:09:24;;;;;;;11.33;2.97;;;6.40;99.90;;;;;;5018624;28;20460;-69
2023/12/23 01:11:51;;;;;;;5.87;2.70;;;6.40;99.90;;;;;;5018628;28;20511;-71
2023/12/23 01:14:18;;;;;;;7.17;2.90;;;6.40;99.90;;;;;;5018540;28;20514;-67
2023/12/23 01:16:45;;;;;;;7.43;3.13;;;6.40;99.90;;;;;;5018598;28;20538;-66
2023/12/23 01:19:13;;;;;;;6.13;2.83;;;6.40;99.90;;;;;;5018223;28;20574;-65
2023/12/23 01:21:41;;;;;;;8.60;2.60;;;6.40;99.90;;;;;;5018463;28;20494;-65
2023/12/23 01:24:08;;;;;;;11.30;2.80;;;6.40;99.90;;;;;;5018000;28;20778;-65
2023/12/23 01:26:37;;;;;;;8.07;3.00;;;6.30;78.90;;;;;;5018317;28;20494;-67
2023/12/23 01:29:04;;;;;;;8.50;2.40;;;6.30;26.60;;;;;;5017792;28;20555;-66
2023/12/23 01:31:31;;;;;;;10.43;2.10;;;6.30;45.50;;;;;;5017983;28;20470;-65
2023/12/23 01:33:59;;;;;;;9.27;3.10;;;6.30;99.90;;;;;;5018069;28;20462;-66
2023/12/23 01:36:26;;;;;;;5.43;2.40;;;6.30;95.10;;;;;;5018481;28;20510;-66
2023/12/23 01:38:53;;;;;;;7.40;2.70;;;6.30;99.90;;;;;;5016776;28;20470;-66
2023/12/23 01:41:20;;;;;;;5.87;2.47;;;6.20;99.90;;;;;;5017894;28;20468;-66
2023/12/23 01:43:49;;;;;;;5.60;3.80;;;6.20;99.90;;;;;;5018118;28;20881;-65
2023/12/23 01:46:16;;;;;;;6.03;2.60;;;6.20;99.90;;;;;;5018106;28;20555;-66
2023/12/23 01:48:46;;;;;;;8.97;3.13;;;6.20;99.90;;;;;;5018213;28;20464;-65
2023/12/23 01:51:14;;;;;;;8.73;3.13;;;6.20;99.90;;;;;;5017848;28;20919;-66
2023/12/23 01:53:42;;;;;;;7.80;2.57;;;6.20;99.90;;;;;;5017361;28;20460;-65
2023/12/23 01:56:10;;;;;;;6.17;3.07;;;6.20;99.90;;;;;;5017743;28;20456;-66
2023/12/23 01:58:37;;;;;;;7.93;2.70;;;6.20;99.90;;;;;;5017901;28;20478;-66
2023/12/23 02:01:06;;;;;;;7.10;2.87;;;6.20;99.90;;;;;;5017481;28;20499;-65
2023/12/23 02:03:34;;;;;;;6.83;3.37;;;6.20;99.90;;;;;;5017778;28;20836;-66
2023/12/23 02:06:02;;;;;;;5.17;3.17;;;6.20;99.90;;;;;;5017649;28;20852;-66
2023/12/23 02:08:29;;;;;;;12.20;3.73;;;6.10;99.90;;;;;;5017858;28;20590;-65
2023/12/23 02:11:06;;;;;;;10.40;3.70;;;6.10;99.90;;;;;;5017704;28;20456;-66
2023/12/23 02:13:41;;;;;;;8.70;3.67;;;6.10;99.90;;;;;;5017563;28;20466;-66
2023/12/23 02:16:11;;;;;;;7.37;3.90;;;6.20;99.90;;;;;;5017451;28;20467;-65
2023/12/23 02:18:40;;;;;;;11.27;3.80;;;6.20;99.90;;;;;;5017154;28;20519;-65
2023/12/23 02:21:09;;;;;;;8.53;3.30;;;6.10;99.90;;;;;;5017344;28;20519;-66
2023/12/23 02:23:36;;;;;;;9.00;4.13;;;6.20;99.90;;;;;;5017442;28;20554;-65
2023/12/23 02:26:05;;;;;;;7.50;3.70;;;6.20;99.90;;;;;;5017335;28;20435;-65
2023/12/23 02:28:33;;;;;;;7.83;4.47;;;6.20;99.90;;;;;;5017475;28;20586;-67
2023/12/23 02:31:01;;;;;;;9.93;4.73;;;6.20;99.90;;;;;;5016860;28;20462;-66
2023/12/23 02:33:29;;;;;;;10.50;4.70;;;6.20;99.90;;;;;;5016741;28;20515;-66
2023/12/23 02:35:56;;;;;;;11.23;5.37;;;6.20;99.90;;;;;;5017150;28;20466;-66
2023/12/23 02:38:24;;;;;;;9.30;4.53;;;6.20;99.90;;;;;;5017374;28;20463;-66
2023/12/23 02:40:52;;;;;;;9.73;4.20;;;6.20;99.90;;;;;;5016834;28;20466;-66
2023/12/23 02:43:19;;;;;;;12.63;4.73;;;6.20;99.90;;;;;;5016903;28;20830;-66
2023/12/23 02:45:46;;;;;;;15.60;4.53;;;6.20;99.90;;;;;;5017302;28;20768;-66
2023/12/23 02:48:14;;;;;;;7.93;3.87;;;6.20;99.90;;;;;;5017065;28;20492;-66
2023/12/23 02:50:41;;;;;;;6.77;3.83;;;6.20;99.90;;;;;;5020655;28;20874;-66
2023/12/23 02:53:08;;;;;;;8.80;4.10;;;6.30;99.90;;;;;;5021199;28;20808;-66
2023/12/23 02:55:38;;;;;;;13.33;4.60;;;6.20;99.90;;;;;;5021074;28;20464;-66
2023/12/23 02:58:05;;;;;;;9.20;4.47;;;6.20;99.90;;;;;;5020948;28;20467;-66
2023/12/23 03:00:33;;;;;;;9.63;4.10;;;6.20;99.90;;;;;;5020969;28;20520;-67
2023/12/23 03:03:00;;;;;;;9.67;4.53;;;6.20;99.90;;;;;;5020678;28;20893;-66
2023/12/23 03:05:27;;;;;;;9.10;4.13;;;6.20;99.90;;;;;;5020570;28;20470;-66
2023/12/23 03:07:54;;;;;;;8.40;4.40;;;6.20;99.90;;;;;;5020919;28;20495;-65
2023/12/23 03:10:22;;;;;;;6.23;3.83;;;6.20;99.90;;;;;;5021182;28;20464;-64
2023/12/23 03:12:51;;;;;;;6.57;3.47;;;6.20;99.90;;;;;;5021017;28;20924;-65
2023/12/23 03:15:18;;;;;;;8.93;3.37;;;6.30;99.90;;;;;;5020577;28;20566;-65
2023/12/23 03:17:45;;;;;;;9.37;3.30;;;6.20;99.90;;;;;;5020949;28;20463;-65
2023/12/23 03:20:12;;;;;;;9.00;3.57;;;6.30;99.90;;;;;;5020627;28;20647;-66
2023/12/23 03:22:40;;;;;;;6.00;2.93;;;6.30;99.90;;;;;;5020727;28;20468;-67
2023/12/23 03:25:07;;;;;;;6.23;2.77;;;6.40;99.90;;;;;;5020469;28;20470;-67
2023/12/23 03:27:35;;;;;;;7.23;3.37;;;6.40;99.90;;;;;;5020183;28;20502;-66
2023/12/23 03:30:05;;;;;;;7.20;3.03;;;6.40;99.90;;;;;;5020123;28;20469;-66
2023/12/23 03:32:31;;;;;;;6.40;2.70;;;6.40;99.90;;;;;;5020776;28;20885;-65
2023/12/23 03:34:58;;;;;;;4.03;2.63;;;6.50;99.90;;;;;;5020944;28;20448;-66
2023/12/23 03:37:25;;;;;;;4.97;3.60;;;6.50;99.90;;;;;;5020220;28;20562;-66
2023/12/23 03:39:52;;;;;;;5.67;3.37;;;6.50;99.90;;;;;;5020115;28;20460;-66
2023/12/23 03:42:20;;;;;;;6.83;3.87;;;6.50;99.90;;;;;;5020211;28;20599;-66
2023/12/23 03:44:47;;;;;;;11.67;4.60;;;6.50;99.90;;;;;;5020538;28;20802;-65
2023/12/23 03:47:16;;;;;;;9.27;4.80;;;6.60;99.90;;;;;;5020165;28;20970;-66
2023/12/23 03:49:43;;;;;;;10.70;5.50;;;6.60;99.90;;;;;;5019846;28;20463;-66
2023/12/23 03:52:10;;;;;;;9.80;5.70;;;6.60;99.90;;;;;;5020001;28;20464;-66
2023/12/23 03:54:37;;;;;;;8.80;6.00;;;6.70;99.90;;;;;;5020378;28;20460;-66
2023/12/23 03:57:05;;;;;;;7.43;6.10;;;6.70;99.90;;;;;;5019705;28;20567;-66
2023/12/23 03:59:32;;;;;;;8.87;7.13;;;6.80;99.90;;;;;;5020022;28;20714;-66
2023/12/23 04:01:59;;;;;;;10.07;6.67;;;6.90;99.90;;;;;;5018321;28;20463;-66
2023/12/23 04:04:28;;;;;;;11.20;7.33;;;6.90;99.90;;;;;;5019862;28;20460;-67
2023/12/23 04:06:55;;;;;;;11.73;6.20;;;6.90;99.90;;;;;;5019831;28;20437;-65
2023/12/23 04:09:23;;;;;;;9.20;6.90;;;7.00;99.90;;;;;;5019599;28;20936;-65
2023/12/23 04:11:50;;;;;;;10.97;6.73;;;7.00;99.90;;;;;;5019892;28;20559;-66
2023/12/23 04:14:17;;;;;;;7.80;6.87;;;7.00;99.90;;;;;;5019998;28;20431;-67
2023/12/23 04:16:44;;;;;;;9.87;7.50;;;7.10;99.90;;;;;;5019164;28;20558;-66
2023/12/23 04:19:12;;;;;;;9.93;8.10;;;7.10;99.90;;;;;;5019238;28;20465;-66
2023/12/23 04:21:40;;;;;;;10.43;8.40;;;7.20;99.90;;;;;;5019438;28;20976;-66
2023/12/23 04:24:08;;;;;;;9.50;7.60;;;7.20;99.90;;;;;;5019503;28;20769;-65
2023/12/23 04:26:35;;;;;;;12.07;8.17;;;7.20;99.90;;;;;;5018745;28;20467;-65
2023/12/23 04:29:02;;;;;;;11.53;8.53;;;7.30;99.90;;;;;;5018838;28;20500;-66
2023/12/23 04:31:29;;;;;;;10.10;8.27;;;7.30;99.90;;;;;;5018849;28;20640;-67
2023/12/23 04:33:57;;;;;;;11.63;9.20;;;7.30;99.90;;;;;;5019202;28;20452;-66
2023/12/23 04:36:24;;;;;;;9.67;6.90;;;7.40;99.90;;;;;;5019596;28;20558;-66
2023/12/23 04:38:53;;;;;;;10.33;7.20;;;7.40;99.90;;;;;;5019376;28;20496;-67
2023/12/23 04:41:20;;;;;;;8.83;6.13;;;7.50;99.90;;;;;;5019195;28;20471;-68
2023/12/23 04:43:48;;;;;;;9.30;5.90;;;7.50;99.90;;;;;;5019154;28;20647;-67
2023/12/23 04:46:15;;;;;;;8.03;7.00;;;7.50;99.90;;;;;;5019177;28;20478;-66
2023/12/23 04:48:42;;;;;;;8.47;7.67;;;7.60;99.90;;;;;;5019206;28;21051;-67
2023/12/23 04:51:09;;;;;;;7.53;6.50;;;7.60;99.90;;;;;;5019241;28;20464;-67
2023/12/23 04:53:36;;;;;;;8.07;7.07;;;7.60;99.90;;;;;;5018734;28;20466;-68
2023/12/23 04:56:06;;;;;;;10.37;8.20;;;7.60;99.90;;;;;;5019283;28;20559;-62
2023/12/23 04:58:33;;;;;;;13.00;9.60;;;7.60;99.90;;;;;;5019151;28;20566;-66
2023/12/23 05:01:00;;;;;;;12.77;10.00;;;7.60;99.90;;;;;;5018444;28;20505;-63
2023/12/23 05:03:31;;;;;;;17.40;11.80;;;7.60;99.90;;;;;;5018480;28;20460;-65
2023/12/23 05:05:58;;;;;;;15.70;12.00;;;7.60;99.90;;;;;;5018679;28;20459;-65
2023/12/23 05:08:25;;;;;;;14.63;10.83;;;7.60;99.90;;;;;;5018873;28;20494;-66
2023/12/23 05:10:52;;;;;;;17.43;12.27;;;7.60;99.90;;;;;;5019018;28;20554;-62
2023/12/23 05:13:23;;;;;;;16.47;13.03;;;7.60;99.90;;;;;;5018425;28;20787;-63
2023/12/23 05:15:50;;;;;;;16.57;11.33;;;7.60;99.90;;;;;;5018417;28;20496;-67
2023/12/23 05:18:17;;;;;;;17.73;12.17;;;7.60;99.90;;;;;;5018052;28;20795;-65
2023/12/23 05:20:46;;;;;;;17.20;11.33;;;7.60;99.90;;;;;;5018799;28;20456;-67
2023/12/23 05:23:13;;;;;;;17.17;12.13;;;7.60;99.90;;;;;;5018499;28;20471;-66
2023/12/23 05:25:40;;;;;;;16.90;12.37;;;7.60;99.90;;;;;;5018359;28;20738;-66
2023/12/23 05:28:07;;;;;;;18.00;12.50;;;7.60;99.90;;;;;;5018471;28;20498;-65
2023/12/23 05:30:36;;;;;;;15.00;11.87;;;7.60;99.90;;;;;;5018712;28;20480;-67
2023/12/23 05:33:04;;;;;;;15.63;11.23;;;7.60;99.90;;;;;;5018237;28;20884;-66
2023/12/23 05:35:31;;;;;;;21.20;12.13;;;7.60;99.90;;;;;;5018273;28;20809;-67
2023/12/23 05:37:58;;;;;;;15.80;12.20;;;7.60;99.90;;;;;;5018510;28;20456;-66
2023/12/23 05:40:25;;;;;;;14.07;12.07;;;7.60;99.90;;;;;;5018496;28;20566;-67
2023/12/23 05:42:52;;;;;;;16.17;10.97;;;7.60;99.90;;;;;;5018490;28;20548;-66
2023/12/23 05:45:19;;;;;;;13.47;12.07;;;7.60;99.90;;;;;;5017753;28;20466;-66
2023/12/23 05:47:50;;;;;;;16.47;12.73;;;7.60;99.90;;;;;;5018244;28;20856;-67
2023/12/23 05:50:17;;;;;;;14.30;11.03;;;7.60;99.90;;;;;;5017916;28;20475;-65
2023/12/23 05:52:45;;;;;;;17.33;12.37;;;7.60;99.90;;;;;;5018027;28;20947;-67
2023/12/23 05:55:12;;;;;;;15.30;11.33;;;7.60;99.90;;;;;;5018130;28;20490;-67
2023/12/23 05:57:39;;;;;;;14.80;10.27;;;7.60;99.90;;;;;;5017886;28;20464;-65
2023/12/23 06:00:07;;;;;;;14.47;10.63;;;7.60;99.90;;;;;;5017901;28;20761;-67
2023/12/23 06:02:35;;;;;;;13.60;11.27;;;7.60;99.90;;;;;;5018154;28;20459;-66
2023/12/23 06:05:04;;;;;;;13.53;11.10;;;7.60;99.90;;;;;;5017620;28;20460;-67
2023/12/23 06:07:31;;;;;;;14.67;10.77;;;7.60;99.90;;;;;;5017665;28;20972;-66
2023/12/23 06:09:58;;;;;;;17.03;10.73;;;7.60;99.90;;;;;;5017839;28;20464;-64
2023/12/23 06:12:25;;;;;;;13.90;11.37;;;7.60;99.90;;;;;;5017637;28;20563;-67
2023/12/23 06:14:54;;;;;;;12.50;11.17;;;7.70;99.90;;;;;;5018050;28;20530;-65
2023/12/23 06:17:21;;;;;;;15.77;10.80;;;7.70;99.90;;;;;;5017440;28;20510;-68
2023/12/23 06:19:48;;;;;;;10.60;9.50;;;7.60;99.90;;;;;;5017275;28;20578;-67
2023/12/23 06:22:17;;;;;;;13.97;11.13;;;7.70;99.90;;;;;;5017922;28;20464;-67
2023/12/23 06:24:44;;;;;;;16.90;10.17;;;7.60;99.90;;;;;;5017080;28;20464;-67
2023/12/23 06:27:11;;;;;;;15.70;10.90;;;7.60;99.90;;;;;;5017739;28;20439;-67
2023/12/23 06:29:39;;;;;;;15.20;10.13;;;7.70;99.90;;;;;;5017131;28;20586;-67
2023/12/23 06:32:07;;;;;;;16.30;11.13;;;7.70;99.90;;;;;;5017502;28;20766;-66
2023/12/23 06:34:34;;;;;;;20.80;10.70;;;7.70;99.90;;;;;;5016182;28;20471;-66
2023/12/23 06:37:01;;;;;;;15.80;9.80;;;7.70;99.90;;;;;;5015929;28;20464;-65
2023/12/23 06:39:29;;;;;;;17.77;11.10;;;7.70;99.90;;;;;;5016799;28;20456;-67
2023/12/23 06:41:57;;;;;;;16.50;9.17;;;7.70;99.90;;;;;;5016874;28;20901;-67
2023/12/23 06:44:24;;;;;;;17.30;11.10;;;7.70;99.90;;;;;;5017059;28;20558;-66
2023/12/23 06:46:51;;;;;;;17.80;10.23;;;7.70;99.90;;;;;;5016944;28;20471;-67
2023/12/23 06:49:19;;;;;;;14.37;10.17;;;7.70;99.90;;;;;;5016703;28;20503;-67
2023/12/23 06:51:46;;;;;;;14.23;10.23;;;7.70;99.90;;;;;;5016995;28;20459;-66
2023/12/23 06:54:13;;;;;;;11.73;9.40;;;7.70;99.90;;;;;;5017203;28;20470;-65
2023/12/23 06:56:42;;;;;;;13.53;10.57;;;7.80;99.90;;;;;;5017498;28;20460;-67
2023/12/23 06:59:12;;;;;;;14.60;9.90;;;7.70;99.90;;;;;;5017101;28;20452;-65
2023/12/23 07:01:40;;;;;;;14.77;9.40;;;7.70;99.90;;;;;;5017465;28;20470;-67
2023/12/23 07:04:08;;;;;;;13.80;8.70;;;7.70;99.90;;;;;;5017064;28;20471;-68
2023/12/23 07:06:36;;;;;;;13.13;9.10;;;7.70;99.90;;;;;;5016717;28;20503;-67
2023/12/23 07:09:04;;;;;;;17.03;8.60;;;7.80;99.90;;;;;;5016705;28;20492;-68
2023/12/23 07:11:31;;;;;;;15.77;9.37;;;7.70;99.90;;;;;;5017493;28;20583;-67
2023/12/23 07:14:00;;;;;;;22.00;10.23;;;7.70;99.90;;;;;;5017664;28;20522;-68
2023/12/23 07:16:27;;;;;;;15.77;9.60;;;7.80;99.90;;;;;;5017292;28;20452;-66
2023/12/23 07:18:55;;;;;;;11.17;8.70;;;7.80;99.90;;;;;;5016976;28;20574;-64
2023/12/23 07:21:22;;;;;;;13.67;8.43;;;7.70;99.90;;;;;;5017480;28;20582;-66
2023/12/23 07:23:49;;;;;;;11.40;9.40;;;7.70;99.90;;;;;;5017186;28;20463;-67
2023/12/23 07:26:16;;;;;;;14.23;9.47;;;7.70;99.90;;;;;;5015994;28;20550;-67
2023/12/23 07:28:44;;;;;;;16.07;9.77;;;7.80;99.90;;;;;;5015959;28;20570;-66
2023/12/23 07:31:13;;;;;;;12.63;9.83;;;7.80;99.90;;;;;;5016516;28;20456;-62
2023/12/23 07:33:40;;;;;;;17.03;9.80;;;7.80;99.90;;;;;;5017145;28;20464;-66
2023/12/23 07:36:08;;;;;;;17.43;10.53;;;7.80;99.90;;;;;;5018791;28;20459;-67
2023/12/23 07:38:35;;;;;;;11.53;9.40;;;7.80;99.90;;;;;;5020302;28;20464;-66
2023/12/23 07:41:03;;;;;;;10.80;8.83;;;7.80;99.90;;;;;;5020238;28;20947;-67
2023/12/23 07:43:30;;;;;;;12.27;9.70;;;7.80;99.90;;;;;;5020606;28;20460;-66
2023/12/23 07:45:57;;;;;;;15.50;8.90;;;7.80;99.90;;;;;;5020664;28;20547;-66
2023/12/23 07:48:25;;;;;;;11.70;9.50;;;7.80;99.90;;;;;;5020171;28;20584;-67
2023/12/23 07:50:53;;;;;;;13.53;9.33;;;7.80;99.90;;;;;;5020266;28;20498;-67
2023/12/23 07:53:20;;;;;;;10.93;8.20;;;7.80;99.90;;;;;;5019943;28;20467;-67
2023/12/23 07:55:47;;;;;;;12.70;9.50;;;7.80;99.90;;;;;;5020128;28;20464;-67
2023/12/23 07:58:15;;;;;;;15.03;10.03;;;7.80;99.90;;;;;;5020181;28;20499;-66
2023/12/23 08:00:42;;;;;;;19.10;10.60;;;7.80;99.90;;;;;;5020001;28;20900;-67
2023/12/23 08:03:10;;;;;;;12.00;9.43;;;7.80;99.90;;;;;;5020155;28;20468;-66
2023/12/23 08:05:38;;;;;;;9.97;7.87;;;7.80;99.90;;;;;;5019895;28;20468;-67
2023/12/23 08:08:07;;;;;;;9.87;8.30;;;7.80;99.90;;;;;;5020220;28;20468;-63
2023/12/23 08:10:34;;;;;;;14.20;8.93;;;7.80;99.90;;;;;;5019857;28;20495;-64
2023/12/23 08:13:01;;;;;;;11.80;8.93;;;7.80;99.90;;;;;;5019636;28;20491;-64
2023/12/23 08:15:29;;;;;;;14.87;8.00;;;7.80;99.90;;;;;;5019657;28;20973;-65
2023/12/23 08:17:56;;;;;;;13.53;9.47;;;7.80;99.90;;;;;;5019475;28;20543;-64
2023/12/23 08:20:23;;;;;;;9.53;8.40;;;7.80;99.90;;;;;;5019737;28;20456;-64
2023/12/23 08:22:52;;;;;;;10.23;7.83;;;7.80;99.90;;;;;;5019199;28;20460;-64
2023/12/23 08:25:19;;;;;;;12.73;9.10;;;7.80;99.90;;;;;;5019278;28;20460;-65
2023/12/23 08:27:47;;;;;;;13.53;9.20;;;7.80;99.90;;;;;;5019374;28;20466;-64
2023/12/23 08:30:14;;;;;;;11.13;8.17;;;7.80;99.90;;;;;;5019367;28;20949;-64
2023/12/23 08:32:42;;;;;;;16.93;9.50;;;7.80;99.90;;;;;;5019028;28;20467;-65
2023/12/23 08:35:10;;;;;;;12.23;9.83;;;7.80;99.90;;;;;;5018584;28;20460;-65
2023/12/23 08:37:37;;;;;;;12.17;10.07;;;7.80;99.90;;;;;;5018563;28;20639;-63
2023/12/23 08:40:07;;;;;;;13.00;10.40;;;7.80;99.90;;;;;;5019058;28;20840;-64
2023/12/23 08:42:35;;;;;;;17.73;10.13;;;7.80;99.90;;;;;;5019092;28;20827;-66
2023/12/23 08:45:02;;;;;;;13.47;10.30;;;7.90;99.90;;;;;;5017551;28;20470;-66
2023/12/23 08:47:29;;;;;;;14.30;10.20;;;7.80;99.90;;;;;;5018239;28;20841;-66
2023/12/23 08:49:56;;;;;;;12.57;10.23;;;7.80;99.90;;;;;;5018590;28;20467;-65
2023/12/23 08:52:24;;;;;;;18.27;11.60;;;7.80;99.90;;;;;;5018995;28;20558;-65
2023/12/23 08:54:51;;;;;;;22.27;10.87;;;7.80;99.90;;;;;;5019120;28;20471;-65
2023/12/23 08:57:20;;;;;;;17.67;11.10;;;7.90;99.90;;;;;;5018561;28;20456;-65
2023/12/23 08:59:47;;;;;;;15.90;11.63;;;7.90;99.90;;;;;;5019277;28;20488;-64
2023/12/23 09:02:14;;;;;;;15.30;10.80;;;7.90;99.90;;;;;;5019326;28;20464;-65
2023/12/23 09:04:42;;;;;;;13.60;10.20;;;7.90;99.90;;;;;;5019001;28;20805;-66
2023/12/23 09:07:10;;;;;;;15.53;11.63;;;7.90;99.90;;;;;;5018332;28;20503;-66
2023/12/23 09:09:37;;;;;;;18.17;11.10;;;7.90;99.90;;;;;;5018422;28;21050;-66
2023/12/23 09:12:06;;;;;;;15.87;10.80;;;7.90;99.90;;;;;;5018679;28;20491;-67
2023/12/23 09:14:35;;;;;;;13.10;9.73;;;7.90;99.90;;;;;;5017906;28;20497;-67
2023/12/23 09:17:05;;;;;;;16.00;9.90;;;7.90;99.90;;;;;;5018084;28;20869;-66
2023/12/23 09:19:33;;;;;;;11.90;9.47;;;7.90;99.90;;;;;;5017504;28;20488;-67
2023/12/23 09:22:00;;;;;;;10.90;9.20;;;7.90;99.90;;;;;;5018926;28;20460;-67
2023/12/23 09:24:28;;;;;;;13.77;7.73;;;7.90;99.90;;;;;;5018146;28;20487;-67
2023/12/23 09:26:57;;;;;;;12.27;8.07;;;7.90;99.90;;;;;;5018588;28;20488;-68
2023/12/23 09:29:24;;;;;;;11.77;8.70;;;8.00;99.90;;;;;;5017549;28;20929;-67
2023/12/23 09:31:53;;;;;;;13.27;8.70;;;8.00;99.90;;;;;;5017880;28;20964;-67
2023/12/23 09:34:21;;;;;;;15.43;8.40;;;8.00;99.90;;;;;;5017484;28;20467;-66
2023/12/23 09:36:49;;;;;;;14.97;8.60;;;8.00;99.90;;;;;;5018406;28;20475;-68
2023/12/23 09:39:16;;;;;;;15.60;7.87;;;8.00;99.90;;;;;;5018865;28;20460;-67
2023/12/23 09:41:44;;;;;;;14.47;6.80;;;8.00;99.90;;;;;;5018707;28;20519;-69
2023/12/23 09:44:11;;;;;;;11.10;6.40;;;8.00;99.90;;;;;;5018430;28;20881;-68
2023/12/23 09:46:39;;;;;;;13.00;6.80;;;8.00;99.90;;;;;;5017901;28;20456;-67
2023/12/23 09:49:08;;;;;;;13.27;6.00;;;8.00;99.90;;;;;;5016613;28;20484;-66
2023/12/23 09:51:36;;;;;;;11.70;5.90;;;8.00;99.90;;;;;;5016159;28;20518;-66
2023/12/23 09:54:07;;;;;;;11.63;6.17;;;8.10;99.90;;;;;;5016164;28;20464;-66
2023/12/23 09:56:36;;;;;;;12.53;5.17;;;8.10;99.90;;;;;;5017382;28;20942;-66
2023/12/23 09:59:04;;;;;;;13.53;6.40;;;8.10;99.90;;;;;;5015961;28;20558;-66
2023/12/23 10:01:32;;;;;;;18.87;6.33;;;8.10;99.90;;;;;;5017166;28;20491;-67
2023/12/23 10:04:00;;;;;;;16.50;6.00;;;8.10;99.90;;;;;;5017694;28;20890;-67
2023/12/23 10:06:28;;;;;;;18.13;5.93;;;8.20;99.90;;;;;;5018084;28;20522;-68
2023/12/23 10:08:56;;;;;;;12.83;5.07;;;8.20;99.90;;;;;;5017581;28;20462;-66
2023/12/23 10:11:25;;;;;;;12.33;5.30;;;8.20;99.90;;;;;;5016974;28;20460;-67
2023/12/23 10:13:54;;;;;;;10.93;5.30;;;8.30;99.90;;;;;;5017661;28;20567;-66
2023/12/23 10:16:21;;;;;;;10.33;4.80;;;8.30;99.90;;;;;;5017655;28;20465;-64
2023/12/23 10:18:49;;;;;;;13.27;5.00;;;8.30;99.90;;;;;;5017376;28;20944;-66
2023/12/23 10:21:16;;;;;;;11.30;5.87;;;8.30;99.90;;;;;;5016845;28;20456;-65
2023/12/23 10:23:46;;;;;;;11.33;5.40;;;8.30;99.90;;;;;;5017124;28;20460;-65
2023/12/23 10:26:15;;;;;;;10.20;4.80;;;8.20;99.90;;;;;;5017790;28;20779;-66
2023/12/23 10:28:44;;;;;;;11.70;5.80;;;8.20;99.90;;;;;;5017762;28;20784;-65
2023/12/23 10:31:13;;;;;;;7.50;4.77;;;8.10;99.90;;;;;;5017020;28;20587;-65
2023/12/23 10:33:49;;;;;;;14.03;5.13;;;8.10;99.90;;;;;;5015676;28;20464;-65
2023/12/23 10:36:20;;;;;;;10.80;6.20;;;8.10;99.90;;;;;;5014939;28;20470;-64
2023/12/23 10:38:54;;;;;;;12.97;4.87;;;8.10;99.90;;;;;;5013632;28;20571;-66
2023/12/23 10:41:29;;;;;;;13.03;6.27;;;8.00;99.90;;;;;;5006054;28;20445;-66
2023/12/23 10:43:57;;;;;;;5.93;4.30;;;8.00;99.90;;;;;;4993992;28;20922;-66
2023/12/23 10:46:26;;;;;;;7.87;4.83;;;8.00;99.90;;;;;;5013169;28;20893;-65
2023/12/23 10:48:55;;;;;;;8.30;3.93;;;8.00;99.90;;;;;;5014687;28;20548;-66
2023/12/23 10:51:23;;;;;;;7.60;4.60;;;8.10;99.90;;;;;;5016050;28;20500;-66
2023/12/23 10:53:53;;;;;;;6.60;4.30;;;8.00;99.90;;;;;;5017047;28;20464;-66
2023/12/23 10:56:21;;;;;;;8.00;4.30;;;8.00;99.90;;;;;;5015659;28;20463;-66
2023/12/23 10:58:48;;;;;;;5.47;4.47;;;8.00;99.90;;;;;;5014554;28;20563;-68
2023/12/23 11:01:19;;;;;;;6.40;4.40;;;8.10;99.90;;;;;;5015280;28;20960;-66
2023/12/23 11:03:48;;;;;;;6.03;5.37;;;8.10;99.90;;;;;;5015817;28;20877;-66
2023/12/23 11:06:16;;;;;;;7.00;4.33;;;8.10;99.90;;;;;;5015677;28;20486;-66
2023/12/23 11:08:44;;;;;;;14.20;5.40;;;8.00;99.90;;;;;;5016242;28;20468;-66
2023/12/23 11:11:14;;;;;;;9.10;4.70;;;8.10;99.90;;;;;;5019386;28;20531;-66
2023/12/23 11:13:42;;;;;;;8.90;5.03;;;8.00;99.90;;;;;;5021054;28;20521;-66
2023/12/23 11:16:10;;;;;;;9.23;4.93;;;8.10;99.90;;;;;;5021118;28;20972;-66
2023/12/23 11:18:40;;;;;;;7.60;5.53;;;8.10;99.90;;;;;;5020739;28;20937;-63
2023/12/23 11:21:17;;;;;;;7.90;4.70;;;8.10;99.90;;;;;;5020365;28;20946;-64
2023/12/23 11:23:44;;;;;;;7.93;5.87;;;8.10;99.90;;;;;;5020318;28;20470;-66
2023/12/23 11:26:43;;;;;;;11.03;6.30;;;8.10;99.90;;;;;;5021004;28;20455;-66
2023/12/23 11:29:14;;;;;;;8.43;5.67;;;8.10;99.90;;;;;;5019256;28;20456;-65
2023/12/23 11:31:42;;;;;;;9.37;5.60;;;8.10;99.90;;;;;;5019718;28;20456;-66
2023/12/23 11:34:20;;;;;;;9.40;6.20;;;8.10;99.90;;;;;;5020425;28;20463;-65
2023/12/23 11:36:48;;;;;;;9.30;6.50;;;8.10;99.90;;;;;;5020390;28;20748;-64
2023/12/23 11:39:17;;;;;;;9.50;6.70;;;8.00;99.90;;;;;;5020632;28;20498;-65
2023/12/23 11:41:46;;;;;;;10.07;6.50;;;8.00;99.90;;;;;;5020463;28;20464;-65
2023/12/23 11:44:15;;;;;;;10.43;7.40;;;8.10;99.90;;;;;;5020848;28;20455;-63
2023/12/23 11:46:43;;;;;;;8.00;6.43;;;8.10;99.90;;;;;;5020568;28;20881;-65
2023/12/23 11:49:14;;;;;;;8.70;6.70;;;8.10;99.90;;;;;;5012895;28;20457;-66
2023/12/23 11:51:44;;;;;;;8.30;6.10;;;8.00;99.90;;;;;;4999037;28;21044;-68
2023/12/23 11:54:11;;;;;;;9.33;6.03;;;8.10;99.90;;;;;;4999222;28;20461;-66
2023/12/23 11:56:38;;;;;;;12.33;6.40;;;8.10;99.90;;;;;;4998541;28;20895;-66
2023/12/23 11:59:08;;;;;;;12.23;6.63;;;8.10;99.90;;;;;;4999250;28;20555;-66
2023/12/23 12:01:35;;;;;;;9.80;7.30;;;8.10;99.90;;;;;;4999662;28;20559;-67
2023/12/23 12:04:02;;;;;;;10.53;6.67;;;8.10;99.90;;;;;;5000297;28;20465;-61
2023/12/23 12:06:30;;;;;;;12.50;7.30;;;8.10;99.90;;;;;;5000692;28;20500;-66
2023/12/23 12:08:58;;;;;;;11.80;7.53;;;8.10;99.90;;;;;;5000653;28;20461;-66
2023/12/23 12:11:28;;;;;;;10.57;7.30;;;8.10;99.90;;;;;;5000182;28;20542;-65
2023/12/23 12:13:58;;;;;;;13.20;6.90;;;8.10;99.90;;;;;;5000371;28;20492;-67
2023/12/23 12:16:27;;;;;;;8.20;7.10;;;8.10;99.90;;;;;;5000269;28;20472;-65
2023/12/23 12:18:54;;;;;;;11.60;6.60;;;8.10;99.90;;;;;;4999486;28;20477;-66
2023/12/23 12:21:22;;;;;;;14.57;8.07;;;8.10;99.90;;;;;;4999396;28;20730;-65
2023/12/23 12:23:50;;;;;;;10.37;7.53;;;8.10;99.90;;;;;;4999970;28;20942;-65
2023/12/23 12:26:17;;;;;;;11.50;7.27;;;8.10;99.90;;;;;;5000373;28;20504;-64
2023/12/23 12:28:45;;;;;;;13.47;7.03;;;8.10;99.90;;;;;;5000373;28;20461;-65
2023/12/23 12:31:14;;;;;;;10.57;7.50;;;8.10;99.90;;;;;;5000385;28;20493;-65
2023/12/23 12:33:44;;;;;;;12.40;7.00;;;8.20;99.90;;;;;;4999790;28;20465;-66
2023/12/23 12:36:16;;;;;;;11.43;5.60;;;8.20;99.90;;;;;;4998978;28;20552;-66
2023/12/23 12:38:45;;;;;;;9.83;5.70;;;8.20;99.90;;;;;;4998510;28;20544;-65
2023/12/23 12:41:13;;;;;;;13.70;5.93;;;8.10;99.90;;;;;;4998867;28;20805;-65
2023/12/23 12:43:41;;;;;;;7.47;5.30;;;8.20;99.90;;;;;;4999746;28;20885;-65
2023/12/23 12:46:09;;;;;;;9.70;5.40;;;8.20;99.90;;;;;;4999464;28;20555;-65
2023/12/23 12:48:37;;;;;;;8.10;4.83;;;8.20;99.90;;;;;;4999322;28;20901;-65
2023/12/23 12:51:07;;;;;;;12.47;5.00;;;8.20;99.90;;;;;;4998642;28;20504;-66